sensor_id;sensor_type;location;lat;lon;timestamp;P1;durP1;ratioP1;P2;durP2;ratioP2
77226;SDS011;66234;47.642;19.144;2023-02-19T00:02:32;2.97;;;0.90;;
77226;SDS011;66234;47.642;19.144;2023-02-19T00:05:36;1.80;;;0.70;;
77226;SDS011;66234;47.642;19.144;2023-02-19T00:08:39;2.92;;;1.17;;
77226;SDS011;66234;47.642;19.144;2023-02-19T00:11:41;1.48;;;0.85;;
77226;SDS011;66234;47.642;19.144;2023-02-19T00:14:44;0.70;;;0.50;;
77226;SDS011;66234;47.642;19.144;2023-02-19T00:17:47;1.47;;;0.80;;
77226;SDS011;66234;47.642;19.144;2023-02-19T00:20:49;1.67;;;0.87;;
77226;SDS011;66234;47.642;19.144;2023-02-19T00:23:56;1.27;;;0.68;;
77226;SDS011;66234;47.642;19.144;2023-02-19T00:27:01;2.22;;;0.75;;
77226;SDS011;66234;47.642;19.144;2023-02-19T00:30:04;1.65;;;0.57;;
77226;SDS011;66234;47.642;19.144;2023-02-19T00:33:08;3.27;;;0.80;;
77226;SDS011;66234;47.642;19.144;2023-02-19T00:36:11;2.20;;;0.57;;
77226;SDS011;66234;47.642;19.144;2023-02-19T00:39:15;2.65;;;0.60;;
77226;SDS011;66234;47.642;19.144;2023-02-19T00:42:19;1.15;;;0.50;;
77226;SDS011;66234;47.642;19.144;2023-02-19T00:45:22;1.17;;;0.52;;
77226;SDS011;66234;47.642;19.144;2023-02-19T00:48:25;0.93;;;0.47;;
77226;SDS011;66234;47.642;19.144;2023-02-19T00:51:28;0.50;;;0.27;;
77226;SDS011;66234;47.642;19.144;2023-02-19T00:54:32;1.13;;;0.50;;
77226;SDS011;66234;47.642;19.144;2023-02-19T00:57:35;1.67;;;0.80;;
77226;SDS011;66234;47.642;19.144;2023-02-19T01:00:37;0.90;;;0.40;;
77226;SDS011;66234;47.642;19.144;2023-02-19T01:03:40;1.77;;;0.33;;
77226;SDS011;66234;47.642;19.144;2023-02-19T01:06:43;0.80;;;0.30;;
77226;SDS011;66234;47.642;19.144;2023-02-19T01:09:45;1.02;;;0.43;;
77226;SDS011;66234;47.642;19.144;2023-02-19T01:12:48;1.23;;;0.30;;
77226;SDS011;66234;47.642;19.144;2023-02-19T01:15:51;0.77;;;0.38;;
77226;SDS011;66234;47.642;19.144;2023-02-19T01:18:53;0.50;;;0.30;;
77226;SDS011;66234;47.642;19.144;2023-02-19T01:21:57;0.90;;;0.23;;
77226;SDS011;66234;47.642;19.144;2023-02-19T01:25:00;0.57;;;0.28;;
77226;SDS011;66234;47.642;19.144;2023-02-19T01:28:02;0.57;;;0.10;;
77226;SDS011;66234;47.642;19.144;2023-02-19T01:31:06;0.75;;;0.40;;
77226;SDS011;66234;47.642;19.144;2023-02-19T01:34:10;0.80;;;0.20;;
77226;SDS011;66234;47.642;19.144;2023-02-19T01:37:14;0.33;;;0.07;;
77226;SDS011;66234;47.642;19.144;2023-02-19T01:40:17;0.50;;;0.28;;
77226;SDS011;66234;47.642;19.144;2023-02-19T01:43:21;0.50;;;0.30;;
77226;SDS011;66234;47.642;19.144;2023-02-19T01:46:24;1.08;;;0.10;;
77226;SDS011;66234;47.642;19.144;2023-02-19T01:49:29;0.53;;;0.20;;
77226;SDS011;66234;47.642;19.144;2023-02-19T01:52:35;0.70;;;0.20;;
77226;SDS011;66234;47.642;19.144;2023-02-19T01:55:38;0.45;;;0.30;;
77226;SDS011;66234;47.642;19.144;2023-02-19T01:58:42;0.35;;;0.20;;
77226;SDS011;66234;47.642;19.144;2023-02-19T02:01:47;2.55;;;0.20;;
77226;SDS011;66234;47.642;19.144;2023-02-19T02:04:50;0.50;;;0.10;;
77226;SDS011;66234;47.642;19.144;2023-02-19T02:07:53;0.90;;;0.40;;
77226;SDS011;66234;47.642;19.144;2023-02-19T02:11:14;0.80;;;0.30;;
77226;SDS011;66234;47.642;19.144;2023-02-19T02:14:17;1.50;;;0.38;;
77226;SDS011;66234;47.642;19.144;2023-02-19T02:17:25;0.80;;;0.17;;
77226;SDS011;66234;47.642;19.144;2023-02-19T02:28:20;0.93;;;0.30;;
77226;SDS011;66234;47.642;19.144;2023-02-19T02:31:39;0.50;;;0.30;;
77226;SDS011;66234;47.642;19.144;2023-02-19T02:34:47;0.90;;;0.30;;
77226;SDS011;66234;47.642;19.144;2023-02-19T02:37:58;1.57;;;0.70;;
77226;SDS011;66234;47.642;19.144;2023-02-19T02:41:05;0.63;;;0.33;;
77226;SDS011;66234;47.642;19.144;2023-02-19T02:44:08;0.88;;;0.30;;
77226;SDS011;66234;47.642;19.144;2023-02-19T02:47:11;1.05;;;0.50;;
77226;SDS011;66234;47.642;19.144;2023-02-19T02:50:38;0.88;;;0.40;;
77226;SDS011;66234;47.642;19.144;2023-02-19T02:53:49;1.20;;;0.40;;
77226;SDS011;66234;47.642;19.144;2023-02-19T02:57:18;1.03;;;0.40;;
77226;SDS011;66234;47.642;19.144;2023-02-19T03:00:25;3.42;;;0.22;;
77226;SDS011;66234;47.642;19.144;2023-02-19T03:03:51;1.80;;;0.50;;
77226;SDS011;66234;47.642;19.144;2023-02-19T03:06:59;0.50;;;0.20;;
77226;SDS011;66234;47.642;19.144;2023-02-19T03:10:08;1.83;;;0.20;;
77226;SDS011;66234;47.642;19.144;2023-02-19T03:13:14;1.30;;;0.63;;
77226;SDS011;66234;47.642;19.144;2023-02-19T03:16:41;0.80;;;0.50;;
77226;SDS011;66234;47.642;19.144;2023-02-19T03:20:07;1.40;;;0.30;;
77226;SDS011;66234;47.642;19.144;2023-02-19T03:23:16;1.30;;;0.40;;
77226;SDS011;66234;47.642;19.144;2023-02-19T03:26:22;0.67;;;0.30;;
77226;SDS011;66234;47.642;19.144;2023-02-19T03:29:27;1.97;;;0.50;;
77226;SDS011;66234;47.642;19.144;2023-02-19T03:32:41;1.08;;;0.47;;
77226;SDS011;66234;47.642;19.144;2023-02-19T03:35:49;1.08;;;0.50;;
77226;SDS011;66234;47.642;19.144;2023-02-19T03:38:59;1.33;;;0.30;;
77226;SDS011;66234;47.642;19.144;2023-02-19T03:42:08;0.40;;;0.10;;
77226;SDS011;66234;47.642;19.144;2023-02-19T03:48:32;0.63;;;0.22;;
77226;SDS011;66234;47.642;19.144;2023-02-19T03:51:40;0.82;;;0.10;;
77226;SDS011;66234;47.642;19.144;2023-02-19T03:54:50;0.73;;;0.35;;
77226;SDS011;66234;47.642;19.144;2023-02-19T03:58:20;0.67;;;0.20;;
77226;SDS011;66234;47.642;19.144;2023-02-19T04:01:46;1.03;;;0.40;;
77226;SDS011;66234;47.642;19.144;2023-02-19T04:04:56;0.73;;;0.30;;
77226;SDS011;66234;47.642;19.144;2023-02-19T04:08:06;2.33;;;0.50;;
77226;SDS011;66234;47.642;19.144;2023-02-19T04:11:26;0.60;;;0.20;;
77226;SDS011;66234;47.642;19.144;2023-02-19T04:18:05;0.63;;;0.40;;
77226;SDS011;66234;47.642;19.144;2023-02-19T04:21:10;1.25;;;0.40;;
77226;SDS011;66234;47.642;19.144;2023-02-19T04:24:15;0.75;;;0.40;;
77226;SDS011;66234;47.642;19.144;2023-02-19T04:27:24;1.55;;;0.50;;
77226;SDS011;66234;47.642;19.144;2023-02-19T04:30:26;0.70;;;0.40;;
77226;SDS011;66234;47.642;19.144;2023-02-19T04:33:29;0.83;;;0.33;;
77226;SDS011;66234;47.642;19.144;2023-02-19T04:36:32;1.10;;;0.30;;
77226;SDS011;66234;47.642;19.144;2023-02-19T04:39:35;0.50;;;0.32;;
77226;SDS011;66234;47.642;19.144;2023-02-19T04:42:37;1.65;;;0.47;;
77226;SDS011;66234;47.642;19.144;2023-02-19T04:45:40;0.93;;;0.43;;
77226;SDS011;66234;47.642;19.144;2023-02-19T04:48:42;1.10;;;0.50;;
77226;SDS011;66234;47.642;19.144;2023-02-19T04:51:45;0.68;;;0.38;;
77226;SDS011;66234;47.642;19.144;2023-02-19T04:54:48;1.85;;;0.38;;
77226;SDS011;66234;47.642;19.144;2023-02-19T04:57:50;0.52;;;0.20;;
77226;SDS011;66234;47.642;19.144;2023-02-19T05:00:53;1.10;;;0.50;;
77226;SDS011;66234;47.642;19.144;2023-02-19T05:03:55;0.83;;;0.20;;
77226;SDS011;66234;47.642;19.144;2023-02-19T05:06:58;1.30;;;0.63;;
77226;SDS011;66234;47.642;19.144;2023-02-19T05:10:00;0.88;;;0.40;;
77226;SDS011;66234;47.642;19.144;2023-02-19T05:13:03;0.80;;;0.50;;
77226;SDS011;66234;47.642;19.144;2023-02-19T05:16:09;0.67;;;0.30;;
77226;SDS011;66234;47.642;19.144;2023-02-19T05:19:17;0.73;;;0.30;;
77226;SDS011;66234;47.642;19.144;2023-02-19T05:22:20;1.20;;;0.45;;
77226;SDS011;66234;47.642;19.144;2023-02-19T05:25:22;1.13;;;0.20;;
77226;SDS011;66234;47.642;19.144;2023-02-19T05:28:25;0.88;;;0.30;;
77226;SDS011;66234;47.642;19.144;2023-02-19T05:31:31;1.27;;;0.20;;
77226;SDS011;66234;47.642;19.144;2023-02-19T05:34:35;0.80;;;0.20;;
77226;SDS011;66234;47.642;19.144;2023-02-19T05:37:37;1.13;;;0.30;;
77226;SDS011;66234;47.642;19.144;2023-02-19T05:40:40;1.27;;;0.55;;
77226;SDS011;66234;47.642;19.144;2023-02-19T05:43:43;2.00;;;0.40;;
77226;SDS011;66234;47.642;19.144;2023-02-19T05:46:47;0.87;;;0.40;;
77226;SDS011;66234;47.642;19.144;2023-02-19T05:49:49;1.07;;;0.47;;
77226;SDS011;66234;47.642;19.144;2023-02-19T05:52:53;0.80;;;0.50;;
77226;SDS011;66234;47.642;19.144;2023-02-19T05:55:56;2.78;;;0.82;;
77226;SDS011;66234;47.642;19.144;2023-02-19T05:59:03;1.58;;;0.60;;
77226;SDS011;66234;47.642;19.144;2023-02-19T06:02:16;1.20;;;0.60;;
77226;SDS011;66234;47.642;19.144;2023-02-19T06:05:19;0.87;;;0.30;;
77226;SDS011;66234;47.642;19.144;2023-02-19T06:08:22;2.00;;;0.70;;
77226;SDS011;66234;47.642;19.144;2023-02-19T06:11:24;2.05;;;0.43;;
77226;SDS011;66234;47.642;19.144;2023-02-19T06:14:27;1.20;;;0.45;;
77226;SDS011;66234;47.642;19.144;2023-02-19T06:17:30;1.20;;;0.50;;
77226;SDS011;66234;47.642;19.144;2023-02-19T06:20:34;0.57;;;0.27;;
77226;SDS011;66234;47.642;19.144;2023-02-19T06:23:37;1.40;;;0.45;;
77226;SDS011;66234;47.642;19.144;2023-02-19T06:26:41;1.17;;;0.32;;
77226;SDS011;66234;47.642;19.144;2023-02-19T06:29:43;0.80;;;0.40;;
77226;SDS011;66234;47.642;19.144;2023-02-19T06:32:46;1.33;;;0.37;;
77226;SDS011;66234;47.642;19.144;2023-02-19T06:35:48;2.17;;;0.63;;
77226;SDS011;66234;47.642;19.144;2023-02-19T06:38:51;1.88;;;0.57;;
77226;SDS011;66234;47.642;19.144;2023-02-19T06:41:54;1.38;;;0.80;;
77226;SDS011;66234;47.642;19.144;2023-02-19T06:44:57;1.10;;;0.60;;
77226;SDS011;66234;47.642;19.144;2023-02-19T06:48:00;2.40;;;1.13;;
77226;SDS011;66234;47.642;19.144;2023-02-19T06:51:02;1.90;;;0.80;;
77226;SDS011;66234;47.642;19.144;2023-02-19T06:54:05;2.10;;;1.08;;
77226;SDS011;66234;47.642;19.144;2023-02-19T06:57:08;1.67;;;0.80;;
77226;SDS011;66234;47.642;19.144;2023-02-19T07:00:11;1.30;;;0.85;;
77226;SDS011;66234;47.642;19.144;2023-02-19T07:03:14;1.23;;;0.60;;
77226;SDS011;66234;47.642;19.144;2023-02-19T07:06:20;1.50;;;0.87;;
77226;SDS011;66234;47.642;19.144;2023-02-19T07:09:24;1.80;;;1.00;;
77226;SDS011;66234;47.642;19.144;2023-02-19T07:12:26;1.48;;;0.88;;
77226;SDS011;66234;47.642;19.144;2023-02-19T07:15:29;1.25;;;0.73;;
77226;SDS011;66234;47.642;19.144;2023-02-19T07:18:32;2.20;;;1.27;;
77226;SDS011;66234;47.642;19.144;2023-02-19T07:21:35;2.17;;;1.00;;
77226;SDS011;66234;47.642;19.144;2023-02-19T07:24:39;1.40;;;0.90;;
77226;SDS011;66234;47.642;19.144;2023-02-19T07:27:41;2.30;;;1.15;;
77226;SDS011;66234;47.642;19.144;2023-02-19T07:30:44;1.42;;;0.98;;
77226;SDS011;66234;47.642;19.144;2023-02-19T07:33:49;3.77;;;1.00;;
77226;SDS011;66234;47.642;19.144;2023-02-19T07:36:53;0.80;;;0.60;;
77226;SDS011;66234;47.642;19.144;2023-02-19T07:39:56;1.95;;;1.10;;
77226;SDS011;66234;47.642;19.144;2023-02-19T07:42:58;3.30;;;1.20;;
77226;SDS011;66234;47.642;19.144;2023-02-19T07:46:05;4.57;;;0.98;;
77226;SDS011;66234;47.642;19.144;2023-02-19T07:49:09;2.47;;;0.80;;
77226;SDS011;66234;47.642;19.144;2023-02-19T07:52:12;1.53;;;1.03;;
77226;SDS011;66234;47.642;19.144;2023-02-19T07:55:14;2.03;;;0.80;;
77226;SDS011;66234;47.642;19.144;2023-02-19T07:58:17;1.30;;;0.57;;
77226;SDS011;66234;47.642;19.144;2023-02-19T08:01:21;1.08;;;0.52;;
77226;SDS011;66234;47.642;19.144;2023-02-19T08:04:45;2.57;;;0.53;;
77226;SDS011;66234;47.642;19.144;2023-02-19T08:07:48;2.10;;;0.70;;
77226;SDS011;66234;47.642;19.144;2023-02-19T08:10:51;2.13;;;0.50;;
77226;SDS011;66234;47.642;19.144;2023-02-19T08:14:12;4.70;;;0.60;;
77226;SDS011;66234;47.642;19.144;2023-02-19T08:17:15;0.85;;;0.45;;
77226;SDS011;66234;47.642;19.144;2023-02-19T08:20:17;0.80;;;0.37;;
77226;SDS011;66234;47.642;19.144;2023-02-19T08:23:20;3.20;;;0.70;;
77226;SDS011;66234;47.642;19.144;2023-02-19T08:26:23;1.10;;;0.43;;
77226;SDS011;66234;47.642;19.144;2023-02-19T08:29:25;1.67;;;0.55;;
77226;SDS011;66234;47.642;19.144;2023-02-19T08:32:28;0.60;;;0.30;;
77226;SDS011;66234;47.642;19.144;2023-02-19T08:35:31;1.10;;;0.60;;
77226;SDS011;66234;47.642;19.144;2023-02-19T08:38:36;1.17;;;0.40;;
77226;SDS011;66234;47.642;19.144;2023-02-19T08:41:39;0.60;;;0.32;;
77226;SDS011;66234;47.642;19.144;2023-02-19T08:44:42;1.00;;;0.68;;
77226;SDS011;66234;47.642;19.144;2023-02-19T08:47:45;2.05;;;0.40;;
77226;SDS011;66234;47.642;19.144;2023-02-19T08:50:52;1.10;;;0.50;;
77226;SDS011;66234;47.642;19.144;2023-02-19T08:53:56;3.00;;;0.50;;
77226;SDS011;66234;47.642;19.144;2023-02-19T08:56:59;0.98;;;0.70;;
77226;SDS011;66234;47.642;19.144;2023-02-19T09:00:02;1.65;;;0.70;;
77226;SDS011;66234;47.642;19.144;2023-02-19T09:03:06;2.28;;;0.55;;
77226;SDS011;66234;47.642;19.144;2023-02-19T09:06:15;0.90;;;0.53;;
77226;SDS011;66234;47.642;19.144;2023-02-19T09:09:20;2.40;;;1.00;;
77226;SDS011;66234;47.642;19.144;2023-02-19T09:12:23;4.75;;;1.02;;
77226;SDS011;66234;47.642;19.144;2023-02-19T09:15:26;2.53;;;1.00;;
77226;SDS011;66234;47.642;19.144;2023-02-19T09:18:30;1.63;;;0.70;;
77226;SDS011;66234;47.642;19.144;2023-02-19T09:21:33;2.37;;;1.40;;
77226;SDS011;66234;47.642;19.144;2023-02-19T09:24:35;1.33;;;1.10;;
77226;SDS011;66234;47.642;19.144;2023-02-19T09:27:38;3.70;;;1.92;;
77226;SDS011;66234;47.642;19.144;2023-02-19T09:30:41;5.57;;;2.67;;
77226;SDS011;66234;47.642;19.144;2023-02-19T09:33:43;5.97;;;3.33;;
77226;SDS011;66234;47.642;19.144;2023-02-19T09:36:47;7.67;;;4.03;;
77226;SDS011;66234;47.642;19.144;2023-02-19T09:39:51;8.60;;;4.77;;
77226;SDS011;66234;47.642;19.144;2023-02-19T09:42:53;7.00;;;4.05;;
77226;SDS011;66234;47.642;19.144;2023-02-19T09:46:02;8.15;;;4.43;;
77226;SDS011;66234;47.642;19.144;2023-02-19T09:49:12;9.18;;;5.10;;
77226;SDS011;66234;47.642;19.144;2023-02-19T09:55:39;7.97;;;4.40;;
77226;SDS011;66234;47.642;19.144;2023-02-19T09:58:47;11.80;;;5.55;;
77226;SDS011;66234;47.642;19.144;2023-02-19T10:01:55;12.35;;;5.22;;
77226;SDS011;66234;47.642;19.144;2023-02-19T10:05:13;10.15;;;5.28;;
77226;SDS011;66234;47.642;19.144;2023-02-19T10:08:18;9.47;;;5.13;;
77226;SDS011;66234;47.642;19.144;2023-02-19T10:11:22;10.53;;;5.50;;
77226;SDS011;66234;47.642;19.144;2023-02-19T10:14:29;9.27;;;5.85;;
77226;SDS011;66234;47.642;19.144;2023-02-19T10:17:33;9.48;;;4.90;;
77226;SDS011;66234;47.642;19.144;2023-02-19T10:20:36;8.63;;;4.72;;
77226;SDS011;66234;47.642;19.144;2023-02-19T10:23:41;6.53;;;4.13;;
77226;SDS011;66234;47.642;19.144;2023-02-19T10:26:44;9.97;;;5.00;;
77226;SDS011;66234;47.642;19.144;2023-02-19T10:29:48;10.40;;;5.50;;
77226;SDS011;66234;47.642;19.144;2023-02-19T10:33:08;9.50;;;4.78;;
77226;SDS011;66234;47.642;19.144;2023-02-19T10:36:18;8.75;;;4.63;;
77226;SDS011;66234;47.642;19.144;2023-02-19T10:43:00;7.83;;;4.60;;
77226;SDS011;66234;47.642;19.144;2023-02-19T10:49:24;7.75;;;3.50;;
77226;SDS011;66234;47.642;19.144;2023-02-19T10:52:32;5.65;;;3.47;;
77226;SDS011;66234;47.642;19.144;2023-02-19T10:55:37;5.87;;;2.93;;
77226;SDS011;66234;47.642;19.144;2023-02-19T10:58:42;4.47;;;2.40;;
77226;SDS011;66234;47.642;19.144;2023-02-19T11:02:02;4.15;;;2.30;;
77226;SDS011;66234;47.642;19.144;2023-02-19T11:05:17;6.45;;;3.15;;
77226;SDS011;66234;47.642;19.144;2023-02-19T11:08:21;7.20;;;3.65;;
77226;SDS011;66234;47.642;19.144;2023-02-19T11:11:34;5.80;;;2.60;;
77226;SDS011;66234;47.642;19.144;2023-02-19T11:14:41;5.77;;;2.40;;
77226;SDS011;66234;47.642;19.144;2023-02-19T11:17:45;3.38;;;1.70;;
77226;SDS011;66234;47.642;19.144;2023-02-19T11:20:57;4.22;;;1.55;;
77226;SDS011;66234;47.642;19.144;2023-02-19T11:24:02;3.25;;;1.42;;
77226;SDS011;66234;47.642;19.144;2023-02-19T11:27:05;2.37;;;1.17;;
77226;SDS011;66234;47.642;19.144;2023-02-19T11:33:42;3.15;;;1.20;;
77226;SDS011;66234;47.642;19.144;2023-02-19T11:36:47;2.47;;;1.02;;
77226;SDS011;66234;47.642;19.144;2023-02-19T11:40:10;3.63;;;1.63;;
77226;SDS011;66234;47.642;19.144;2023-02-19T11:46:52;2.80;;;1.30;;
77226;SDS011;66234;47.642;19.144;2023-02-19T11:53:32;1.67;;;1.00;;
77226;SDS011;66234;47.642;19.144;2023-02-19T11:56:39;3.22;;;0.82;;
77226;SDS011;66234;47.642;19.144;2023-02-19T11:59:55;1.97;;;1.00;;
77226;SDS011;66234;47.642;19.144;2023-02-19T12:06:54;2.15;;;0.88;;
77226;SDS011;66234;47.642;19.144;2023-02-19T12:10:17;2.70;;;0.68;;
77226;SDS011;66234;47.642;19.144;2023-02-19T12:19:52;1.97;;;0.97;;
77226;SDS011;66234;47.642;19.144;2023-02-19T12:26:28;1.58;;;0.80;;
77226;SDS011;66234;47.642;19.144;2023-02-19T12:30:20;0.90;;;0.52;;
77226;SDS011;66234;47.642;19.144;2023-02-19T12:39:59;1.20;;;0.75;;
77226;SDS011;66234;47.642;19.144;2023-02-19T12:43:17;1.58;;;0.40;;
77226;SDS011;66234;47.642;19.144;2023-02-19T12:46:27;2.47;;;0.70;;
77226;SDS011;66234;47.642;19.144;2023-02-19T12:49:38;1.10;;;0.70;;
77226;SDS011;66234;47.642;19.144;2023-02-19T12:52:45;1.63;;;1.00;;
77226;SDS011;66234;47.642;19.144;2023-02-19T12:55:53;1.98;;;1.00;;
77226;SDS011;66234;47.642;19.144;2023-02-19T12:58:59;2.45;;;1.30;;
77226;SDS011;66234;47.642;19.144;2023-02-19T13:05:41;1.30;;;0.73;;
77226;SDS011;66234;47.642;19.144;2023-02-19T13:08:55;0.67;;;0.67;;
77226;SDS011;66234;47.642;19.144;2023-02-19T13:12:16;0.73;;;0.63;;
77226;SDS011;66234;47.642;19.144;2023-02-19T13:18:49;1.40;;;0.50;;
77226;SDS011;66234;47.642;19.144;2023-02-19T13:21:57;1.13;;;0.60;;
77226;SDS011;66234;47.642;19.144;2023-02-19T13:32:57;0.63;;;0.20;;
77226;SDS011;66234;47.642;19.144;2023-02-19T13:36:23;0.70;;;0.50;;
77226;SDS011;66234;47.642;19.144;2023-02-19T13:39:28;0.83;;;0.30;;
77226;SDS011;66234;47.642;19.144;2023-02-19T13:42:33;0.43;;;0.20;;
77226;SDS011;66234;47.642;19.144;2023-02-19T13:45:38;0.32;;;0.20;;
77226;SDS011;66234;47.642;19.144;2023-02-19T13:48:45;1.27;;;0.32;;
77226;SDS011;66234;47.642;19.144;2023-02-19T13:51:51;1.10;;;0.20;;
77226;SDS011;66234;47.642;19.144;2023-02-19T13:55:38;0.60;;;0.20;;
77226;SDS011;66234;47.642;19.144;2023-02-19T14:08:58;0.60;;;0.17;;
77226;SDS011;66234;47.642;19.144;2023-02-19T14:12:02;0.67;;;0.17;;
77226;SDS011;66234;47.642;19.144;2023-02-19T14:18:41;0.68;;;0.20;;
77226;SDS011;66234;47.642;19.144;2023-02-19T14:21:46;0.03;;;0.00;;
77226;SDS011;66234;47.642;19.144;2023-02-19T14:24:49;0.30;;;0.10;;
77226;SDS011;66234;47.642;19.144;2023-02-19T14:31:43;0.27;;;0.10;;
77226;SDS011;66234;47.642;19.144;2023-02-19T14:34:47;0.50;;;0.20;;
77226;SDS011;66234;47.642;19.144;2023-02-19T14:37:50;0.00;;;0.00;;
77226;SDS011;66234;47.642;19.144;2023-02-19T14:40:57;1.13;;;0.00;;
77226;SDS011;66234;47.642;19.144;2023-02-19T14:44:00;0.10;;;0.00;;
77226;SDS011;66234;47.642;19.144;2023-02-19T14:47:06;0.20;;;0.00;;
77226;SDS011;66234;47.642;19.144;2023-02-19T14:50:15;0.63;;;0.00;;
77226;SDS011;66234;47.642;19.144;2023-02-19T14:53:27;0.38;;;0.00;;
77226;SDS011;66234;47.642;19.144;2023-02-19T14:56:32;0.85;;;0.00;;
77226;SDS011;66234;47.642;19.144;2023-02-19T14:59:37;0.10;;;0.00;;
77226;SDS011;66234;47.642;19.144;2023-02-19T15:02:41;0.00;;;0.00;;
77226;SDS011;66234;47.642;19.144;2023-02-19T15:05:44;0.10;;;0.00;;
77226;SDS011;66234;47.642;19.144;2023-02-19T15:08:47;0.10;;;0.00;;
77226;SDS011;66234;47.642;19.144;2023-02-19T15:11:53;0.20;;;0.00;;
77226;SDS011;66234;47.642;19.144;2023-02-19T15:14:58;0.20;;;0.00;;
77226;SDS011;66234;47.642;19.144;2023-02-19T15:18:04;0.33;;;0.00;;
77226;SDS011;66234;47.642;19.144;2023-02-19T15:21:11;0.30;;;0.00;;
77226;SDS011;66234;47.642;19.144;2023-02-19T15:24:29;0.20;;;0.00;;
77226;SDS011;66234;47.642;19.144;2023-02-19T15:27:32;0.43;;;0.05;;
77226;SDS011;66234;47.642;19.144;2023-02-19T15:30:38;0.17;;;0.00;;
77226;SDS011;66234;47.642;19.144;2023-02-19T15:33:48;0.17;;;0.00;;
77226;SDS011;66234;47.642;19.144;2023-02-19T15:37:10;0.35;;;0.15;;
77226;SDS011;66234;47.642;19.144;2023-02-19T15:40:16;0.68;;;0.52;;
77226;SDS011;66234;47.642;19.144;2023-02-19T15:47:11;0.47;;;0.10;;
77226;SDS011;66234;47.642;19.144;2023-02-19T15:50:18;0.63;;;0.10;;
77226;SDS011;66234;47.642;19.144;2023-02-19T15:53:28;0.40;;;0.00;;
77226;SDS011;66234;47.642;19.144;2023-02-19T15:56:35;0.75;;;0.08;;
77226;SDS011;66234;47.642;19.144;2023-02-19T15:59:45;0.35;;;0.00;;
77226;SDS011;66234;47.642;19.144;2023-02-19T16:02:51;0.63;;;0.00;;
77226;SDS011;66234;47.642;19.144;2023-02-19T16:09:17;1.17;;;0.10;;
77226;SDS011;66234;47.642;19.144;2023-02-19T16:12:22;1.05;;;0.15;;
77226;SDS011;66234;47.642;19.144;2023-02-19T16:15:29;0.77;;;0.28;;
77226;SDS011;66234;47.642;19.144;2023-02-19T16:18:33;0.90;;;0.30;;
77226;SDS011;66234;47.642;19.144;2023-02-19T16:21:37;1.07;;;0.20;;
77226;SDS011;66234;47.642;19.144;2023-02-19T16:24:44;1.25;;;0.40;;
77226;SDS011;66234;47.642;19.144;2023-02-19T16:27:49;0.32;;;0.20;;
77226;SDS011;66234;47.642;19.144;2023-02-19T16:31:02;0.40;;;0.10;;
77226;SDS011;66234;47.642;19.144;2023-02-19T16:34:16;0.40;;;0.10;;
77226;SDS011;66234;47.642;19.144;2023-02-19T16:37:36;0.30;;;0.10;;
77226;SDS011;66234;47.642;19.144;2023-02-19T16:41:03;0.40;;;0.13;;
77226;SDS011;66234;47.642;19.144;2023-02-19T16:47:36;2.65;;;0.20;;
77226;SDS011;66234;47.642;19.144;2023-02-19T16:50:43;0.30;;;0.00;;
77226;SDS011;66234;47.642;19.144;2023-02-19T16:53:47;0.10;;;0.00;;
77226;SDS011;66234;47.642;19.144;2023-02-19T16:56:50;0.13;;;0.00;;
77226;SDS011;66234;47.642;19.144;2023-02-19T16:59:53;0.10;;;0.00;;
77226;SDS011;66234;47.642;19.144;2023-02-19T17:02:57;0.20;;;0.10;;
77226;SDS011;66234;47.642;19.144;2023-02-19T17:06:04;1.70;;;0.10;;
77226;SDS011;66234;47.642;19.144;2023-02-19T17:09:07;0.27;;;0.00;;
77226;SDS011;66234;47.642;19.144;2023-02-19T17:12:11;0.13;;;0.00;;
77226;SDS011;66234;47.642;19.144;2023-02-19T17:15:14;0.35;;;0.03;;
77226;SDS011;66234;47.642;19.144;2023-02-19T17:18:17;0.20;;;0.08;;
77226;SDS011;66234;47.642;19.144;2023-02-19T17:21:21;0.10;;;0.00;;
77226;SDS011;66234;47.642;19.144;2023-02-19T17:24:27;1.90;;;0.30;;
77226;SDS011;66234;47.642;19.144;2023-02-19T17:27:30;0.70;;;0.20;;
77226;SDS011;66234;47.642;19.144;2023-02-19T17:30:33;0.40;;;0.10;;
77226;SDS011;66234;47.642;19.144;2023-02-19T17:33:37;0.40;;;0.10;;
77226;SDS011;66234;47.642;19.144;2023-02-19T17:36:39;1.10;;;0.20;;
77226;SDS011;66234;47.642;19.144;2023-02-19T17:39:45;0.37;;;0.00;;
77226;SDS011;66234;47.642;19.144;2023-02-19T17:42:48;0.57;;;0.10;;
77226;SDS011;66234;47.642;19.144;2023-02-19T17:45:51;0.68;;;0.10;;
77226;SDS011;66234;47.642;19.144;2023-02-19T17:48:54;0.20;;;0.20;;
77226;SDS011;66234;47.642;19.144;2023-02-19T17:51:57;0.40;;;0.20;;
77226;SDS011;66234;47.642;19.144;2023-02-19T17:55:01;0.40;;;0.10;;
77226;SDS011;66234;47.642;19.144;2023-02-19T17:58:03;0.57;;;0.10;;
77226;SDS011;66234;47.642;19.144;2023-02-19T18:01:06;0.15;;;0.03;;
77226;SDS011;66234;47.642;19.144;2023-02-19T18:04:09;0.25;;;0.10;;
77226;SDS011;66234;47.642;19.144;2023-02-19T18:07:12;0.87;;;0.00;;
77226;SDS011;66234;47.642;19.144;2023-02-19T18:10:16;1.63;;;0.30;;
77226;SDS011;66234;47.642;19.144;2023-02-19T18:13:21;0.10;;;0.00;;
77226;SDS011;66234;47.642;19.144;2023-02-19T18:16:24;1.40;;;0.30;;
77226;SDS011;66234;47.642;19.144;2023-02-19T18:19:26;0.47;;;0.13;;
77226;SDS011;66234;47.642;19.144;2023-02-19T18:22:30;2.20;;;0.70;;
77226;SDS011;66234;47.642;19.144;2023-02-19T18:25:37;0.57;;;0.10;;
77226;SDS011;66234;47.642;19.144;2023-02-19T18:28:40;2.15;;;0.52;;
77226;SDS011;66234;47.642;19.144;2023-02-19T18:31:42;1.50;;;0.20;;
77226;SDS011;66234;47.642;19.144;2023-02-19T18:34:53;0.90;;;0.20;;
77226;SDS011;66234;47.642;19.144;2023-02-19T18:37:57;2.33;;;0.57;;
77226;SDS011;66234;47.642;19.144;2023-02-19T18:41:01;1.13;;;0.40;;
77226;SDS011;66234;47.642;19.144;2023-02-19T18:44:03;0.65;;;0.30;;
77226;SDS011;66234;47.642;19.144;2023-02-19T18:47:07;0.80;;;0.22;;
77226;SDS011;66234;47.642;19.144;2023-02-19T18:50:11;0.63;;;0.08;;
77226;SDS011;66234;47.642;19.144;2023-02-19T18:53:15;0.87;;;0.20;;
77226;SDS011;66234;47.642;19.144;2023-02-19T18:56:18;0.40;;;0.40;;
77226;SDS011;66234;47.642;19.144;2023-02-19T18:59:20;1.00;;;0.30;;
77226;SDS011;66234;47.642;19.144;2023-02-19T19:02:24;0.45;;;0.17;;
77226;SDS011;66234;47.642;19.144;2023-02-19T19:05:29;0.38;;;0.10;;
77226;SDS011;66234;47.642;19.144;2023-02-19T19:08:33;0.43;;;0.10;;
77226;SDS011;66234;47.642;19.144;2023-02-19T19:11:36;1.07;;;0.30;;
77226;SDS011;66234;47.642;19.144;2023-02-19T19:14:39;0.70;;;0.20;;
77226;SDS011;66234;47.642;19.144;2023-02-19T19:17:43;0.82;;;0.17;;
77226;SDS011;66234;47.642;19.144;2023-02-19T19:20:47;0.70;;;0.20;;
77226;SDS011;66234;47.642;19.144;2023-02-19T19:23:50;0.50;;;0.27;;
77226;SDS011;66234;47.642;19.144;2023-02-19T19:26:53;1.20;;;0.37;;
77226;SDS011;66234;47.642;19.144;2023-02-19T19:29:56;0.95;;;0.43;;
77226;SDS011;66234;47.642;19.144;2023-02-19T19:32:58;1.63;;;0.52;;
77226;SDS011;66234;47.642;19.144;2023-02-19T19:36:04;1.90;;;0.20;;
77226;SDS011;66234;47.642;19.144;2023-02-19T19:39:07;1.20;;;0.70;;
77226;SDS011;66234;47.642;19.144;2023-02-19T19:42:10;1.27;;;0.50;;
77226;SDS011;66234;47.642;19.144;2023-02-19T19:45:13;0.65;;;0.40;;
77226;SDS011;66234;47.642;19.144;2023-02-19T19:48:17;1.35;;;0.70;;
77226;SDS011;66234;47.642;19.144;2023-02-19T19:51:19;0.73;;;0.30;;
77226;SDS011;66234;47.642;19.144;2023-02-19T19:54:22;2.60;;;0.90;;
77226;SDS011;66234;47.642;19.144;2023-02-19T19:57:25;2.63;;;0.53;;
77226;SDS011;66234;47.642;19.144;2023-02-19T20:00:28;1.40;;;0.43;;
77226;SDS011;66234;47.642;19.144;2023-02-19T20:03:31;0.70;;;0.50;;